Columbus, Ohio
Traffic Map
Current Weather Conditions
Columbus, Ohio
Broken Clouds
Broken Clouds
16°
Feels Like: 16°
Wind Chill: 16° Ceiling: 10000
Heat Index: 16° Visibility: 10mi
Dew Point: Wind: 13mph
Humidity: 57% Direction: 180° (S)
Pressure: 29.88in Gusts: 0mph
Raw Report DataKCMH 201751Z 18011KT 10SM SCT036 BKN100 BKN200 16/07 A2988 RMK AO2 SLP118 60000 T01560072 10167 20078 58028
Traffic Incident Summary
Active as of:
Severity:
Category:
InformationThere was an issue retrieving the traffic information for this location. Please try a different location or try again shortly.
Advertisements
Track Severe Weather on mobile